createdAt,value
2022-12-11T00:00:43.345Z,8.90
2022-12-11T00:03:15.904Z,8.90
2022-12-11T00:05:47.467Z,8.90
2022-12-11T00:08:16.478Z,9.00
2022-12-11T00:10:50.988Z,9.10
2022-12-11T00:13:19.971Z,9.20
2022-12-11T00:15:49.004Z,8.50
2022-12-11T00:18:18.039Z,9.20
2022-12-11T00:20:48.576Z,9.50
2022-12-11T00:23:17.714Z,9.30
2022-12-11T00:25:47.920Z,9.10
2022-12-11T00:28:19.024Z,9.30
2022-12-11T00:30:48.768Z,9.30
2022-12-11T00:33:17.929Z,9.20
2022-12-11T00:35:49.447Z,9.20
2022-12-11T00:38:20.187Z,9.10
2022-12-11T00:40:50.321Z,9.10
2022-12-11T00:43:19.640Z,9.20
2022-12-11T00:45:49.457Z,9.30
2022-12-11T00:48:18.612Z,9.10
2022-12-11T00:50:49.075Z,9.30
2022-12-11T00:53:18.338Z,9.20
2022-12-11T00:55:47.340Z,9.20
2022-12-11T00:58:16.806Z,9.30
2022-12-11T01:00:48.486Z,9.20
2022-12-11T01:03:18.898Z,9.10
2022-12-11T01:05:56.419Z,9.00
2022-12-11T01:08:25.615Z,8.90
2022-12-11T01:11:02.719Z,8.90
2022-12-11T01:13:31.851Z,9.20
2022-12-11T01:16:00.938Z,9.10
2022-12-11T01:18:29.988Z,9.00
2022-12-11T01:21:00.509Z,8.70
2022-12-11T01:23:29.712Z,8.90
2022-12-11T01:25:58.735Z,8.90
2022-12-11T01:28:27.762Z,8.80
2022-12-11T01:30:56.890Z,8.90
2022-12-11T01:33:25.933Z,9.00
2022-12-11T01:35:55.464Z,9.00
2022-12-11T01:38:25.919Z,8.80
2022-12-11T01:40:54.896Z,8.70
2022-12-11T01:43:24.034Z,8.90
2022-12-11T01:45:53.195Z,8.80
2022-12-11T01:48:25.431Z,8.80
2022-12-11T01:50:57.023Z,8.90
2022-12-11T01:53:31.448Z,8.80
2022-12-11T01:56:01.317Z,8.80
2022-12-11T01:58:35.380Z,8.70
2022-12-11T02:01:05.065Z,8.80
2022-12-11T02:03:34.248Z,8.70
2022-12-11T02:06:04.009Z,8.70
2022-12-11T02:08:34.606Z,8.60
2022-12-11T02:11:13.097Z,8.60
2022-12-11T02:13:52.003Z,8.40
2022-12-11T02:16:27.922Z,8.30
2022-12-11T02:19:04.423Z,8.50
2022-12-11T02:21:39.166Z,8.50
2022-12-11T02:24:51.215Z,8.50
2022-12-11T02:27:30.889Z,8.30
2022-12-11T02:30:05.575Z,8.50
2022-12-11T02:32:39.940Z,8.40
2022-12-11T02:35:14.588Z,8.40
2022-12-11T02:37:46.343Z,8.50
2022-12-11T02:40:18.473Z,8.40
2022-12-11T02:42:49.740Z,8.50
2022-12-11T02:45:22.104Z,8.60
2022-12-11T02:47:52.041Z,8.60
2022-12-11T02:50:24.465Z,8.70
2022-12-11T02:52:57.370Z,8.60
2022-12-11T02:55:29.658Z,8.80
2022-12-11T02:58:05.830Z,8.70
2022-12-11T03:00:36.466Z,8.80
2022-12-11T03:03:05.860Z,8.70
2022-12-11T03:05:35.313Z,8.70
2022-12-11T03:08:04.629Z,9.00
2022-12-11T03:10:33.799Z,8.90
2022-12-11T03:13:04.194Z,9.00
2022-12-11T03:15:42.245Z,8.90
2022-12-11T03:18:19.495Z,8.90
2022-12-11T03:20:56.093Z,8.90
2022-12-11T03:23:32.541Z,8.90
2022-12-11T03:26:04.998Z,8.90
2022-12-11T03:28:40.787Z,8.90
2022-12-11T03:31:14.777Z,9.10
2022-12-11T03:33:48.110Z,9.00
2022-12-11T03:36:22.005Z,9.00
2022-12-11T03:38:53.199Z,8.90
2022-12-11T03:41:25.724Z,8.70
2022-12-11T03:43:58.632Z,8.70
2022-12-11T03:46:32.604Z,8.80
2022-12-11T03:49:05.500Z,8.80
2022-12-11T03:51:37.353Z,8.80
2022-12-11T03:54:07.321Z,8.90
2022-12-11T03:56:38.576Z,9.00
2022-12-11T03:59:07.690Z,8.90
2022-12-11T04:01:38.292Z,9.00
2022-12-11T04:04:07.797Z,9.00
2022-12-11T04:06:36.907Z,8.80
2022-12-11T04:09:06.055Z,8.80
2022-12-11T04:11:38.487Z,8.80
2022-12-11T04:14:27.056Z,8.70
2022-12-11T04:16:58.909Z,8.70
2022-12-11T04:19:45.473Z,8.70
2022-12-11T04:22:33.107Z,8.70
2022-12-11T04:25:02.770Z,8.60
2022-12-11T04:27:49.055Z,8.70
2022-12-11T04:30:20.821Z,8.40
2022-12-11T04:32:51.773Z,8.50
2022-12-11T04:35:21.602Z,8.40
2022-12-11T04:37:50.891Z,8.40
2022-12-11T04:40:21.457Z,8.40
2022-12-11T04:42:50.648Z,8.40
2022-12-11T04:45:20.114Z,8.40
2022-12-11T04:47:50.689Z,8.40
2022-12-11T04:50:20.827Z,8.50
2022-12-11T04:52:49.963Z,8.50
2022-12-11T04:55:19.189Z,8.30
2022-12-11T04:57:48.207Z,8.20
2022-12-11T05:00:18.248Z,8.10
2022-12-11T05:02:47.321Z,8.00
2022-12-11T05:05:17.964Z,7.80
2022-12-11T05:07:47.252Z,7.70
2022-12-11T05:10:16.304Z,7.90
2022-12-11T05:12:45.388Z,7.80
2022-12-11T05:15:14.385Z,7.80
2022-12-11T05:17:43.482Z,7.70
2022-12-11T05:20:13.234Z,7.70
2022-12-11T05:22:44.006Z,7.30
2022-12-11T05:25:13.440Z,7.50
2022-12-11T05:27:42.736Z,7.70
2022-12-11T05:30:12.632Z,7.60
2022-12-11T05:32:41.725Z,7.90
2022-12-11T05:35:11.783Z,7.60
2022-12-11T05:37:42.547Z,7.80
2022-12-11T05:40:13.303Z,7.60
2022-12-11T05:42:42.349Z,7.60
2022-12-11T05:45:12.515Z,7.50
2022-12-11T05:47:41.812Z,7.60
2022-12-11T05:50:11.357Z,7.80
2022-12-11T05:52:40.503Z,7.60
2022-12-11T05:55:11.641Z,7.60
2022-12-11T05:57:40.908Z,7.60
2022-12-11T06:00:11.662Z,7.70
2022-12-11T06:02:41.079Z,7.60
2022-12-11T06:05:10.717Z,7.80
2022-12-11T06:07:40.084Z,7.70
2022-12-11T06:10:11.603Z,7.60
2022-12-11T06:12:41.199Z,7.40
2022-12-11T06:15:11.243Z,7.50
2022-12-11T06:17:40.454Z,7.50
2022-12-11T06:20:10.382Z,7.40
2022-12-11T06:22:39.418Z,7.40
2022-12-11T06:25:10.026Z,7.50
2022-12-11T06:27:40.810Z,7.40
2022-12-11T06:30:11.648Z,7.40
2022-12-11T06:32:40.785Z,7.30
2022-12-11T06:35:10.436Z,7.40
2022-12-11T06:37:40.914Z,7.40
2022-12-11T06:40:11.990Z,7.40
2022-12-11T06:42:42.583Z,7.30
2022-12-11T06:45:12.885Z,7.30
2022-12-11T06:47:42.140Z,7.30
2022-12-11T06:50:11.923Z,7.20
2022-12-11T06:52:41.096Z,7.20
2022-12-11T06:55:11.203Z,7.30
2022-12-11T06:57:42.113Z,7.40
2022-12-11T07:00:12.424Z,7.30
2022-12-11T07:02:42.292Z,7.40
2022-12-11T07:05:11.727Z,7.20
2022-12-11T07:07:41.026Z,6.90
2022-12-11T07:10:11.210Z,7.10
2022-12-11T07:12:41.777Z,7.00
2022-12-11T07:15:11.921Z,7.00
2022-12-11T07:17:41.256Z,6.80
2022-12-11T07:20:11.379Z,6.80
2022-12-11T07:22:46.068Z,6.80
2022-12-11T07:25:15.697Z,6.80
2022-12-11T07:27:59.169Z,6.70
2022-12-11T07:30:28.685Z,6.60
2022-12-11T07:32:57.775Z,6.50
2022-12-11T07:35:26.912Z,6.70
2022-12-11T07:37:55.936Z,6.70
2022-12-11T07:40:24.881Z,6.70
2022-12-11T07:42:55.416Z,6.60
2022-12-11T07:45:26.519Z,6.80
2022-12-11T07:47:55.620Z,6.60
2022-12-11T07:50:25.292Z,6.80
2022-12-11T07:52:58.244Z,7.00
2022-12-11T07:55:30.043Z,6.80
2022-12-11T07:58:03.890Z,6.70
2022-12-11T08:00:34.366Z,6.70
2022-12-11T08:03:05.561Z,6.80
2022-12-11T08:05:37.534Z,6.80
2022-12-11T08:08:09.304Z,6.90
2022-12-11T08:10:40.362Z,7.00
2022-12-11T08:13:12.807Z,7.00
2022-12-11T08:15:44.546Z,7.00
2022-12-11T08:18:17.228Z,7.20
2022-12-11T08:20:48.210Z,7.20
2022-12-11T08:23:17.861Z,7.40
2022-12-11T08:25:46.902Z,7.20
2022-12-11T08:28:17.547Z,7.20
2022-12-11T08:30:46.793Z,7.30
2022-12-11T08:33:15.767Z,7.30
2022-12-11T08:35:46.663Z,7.30
2022-12-11T08:38:17.688Z,7.40
2022-12-11T08:40:50.052Z,7.30
2022-12-11T08:43:20.580Z,7.30
2022-12-11T08:45:49.727Z,7.50
2022-12-11T08:48:19.000Z,7.50
2022-12-11T08:50:48.039Z,7.50
2022-12-11T08:53:17.162Z,7.50
2022-12-11T08:55:46.355Z,7.20
2022-12-11T08:58:15.385Z,7.30
2022-12-11T09:00:45.887Z,7.20
2022-12-11T09:03:14.989Z,7.30
2022-12-11T09:05:43.927Z,7.50
2022-12-11T09:08:13.970Z,7.20
2022-12-11T09:10:43.031Z,7.20
2022-12-11T09:13:12.133Z,7.40
2022-12-11T09:15:42.827Z,7.10
2022-12-11T09:18:13.375Z,7.00
2022-12-11T09:20:46.247Z,6.90
2022-12-11T09:23:17.381Z,7.20
2022-12-11T09:25:49.983Z,7.00
2022-12-11T09:28:20.994Z,7.20
2022-12-11T09:30:50.888Z,7.10
2022-12-11T09:33:24.241Z,6.80
2022-12-11T09:36:01.519Z,7.20
2022-12-11T09:38:32.205Z,6.40
2022-12-11T09:41:01.800Z,6.90
2022-12-11T09:43:39.649Z,6.90
2022-12-11T09:46:13.086Z,7.00
2022-12-11T09:48:46.094Z,6.80
2022-12-11T09:51:23.783Z,6.60
2022-12-11T09:53:53.884Z,6.50
2022-12-11T09:56:27.189Z,6.60
2022-12-11T09:59:07.134Z,6.60
2022-12-11T10:01:47.100Z,6.50
2022-12-11T10:04:39.944Z,6.40
2022-12-11T10:07:17.571Z,6.40
2022-12-11T10:09:54.406Z,6.50
2022-12-11T10:12:35.100Z,6.40
2022-12-11T10:15:30.833Z,6.60
2022-12-11T10:18:05.230Z,6.60
2022-12-11T10:20:39.649Z,6.70
2022-12-11T10:23:10.491Z,6.30
2022-12-11T10:25:43.179Z,6.30
2022-12-11T10:28:14.825Z,6.40
2022-12-11T10:30:49.995Z,6.20
2022-12-11T10:33:23.673Z,6.30
2022-12-11T10:35:56.602Z,6.20
2022-12-11T10:38:30.415Z,6.10
2022-12-11T10:41:02.400Z,5.90
2022-12-11T10:43:36.619Z,6.00
2022-12-11T10:46:07.151Z,5.80
2022-12-11T10:48:38.194Z,5.70
2022-12-11T10:51:11.910Z,5.80
2022-12-11T10:53:43.499Z,5.70
2022-12-11T10:56:13.923Z,5.90
2022-12-11T10:58:51.404Z,5.70
2022-12-11T11:01:23.888Z,5.40
2022-12-11T11:03:59.241Z,5.70
2022-12-11T11:06:29.818Z,5.50
2022-12-11T11:09:01.008Z,5.50
2022-12-11T11:11:33.843Z,5.60
2022-12-11T11:14:08.925Z,5.50
2022-12-11T11:16:40.376Z,5.60
2022-12-11T11:19:18.234Z,5.80
2022-12-11T11:21:52.645Z,5.60
2022-12-11T11:24:36.609Z,5.40
2022-12-11T11:27:14.204Z,5.60
2022-12-11T11:29:46.688Z,5.50
2022-12-11T11:32:24.086Z,5.50
2022-12-11T11:34:53.223Z,5.60
2022-12-11T11:37:33.238Z,5.40
2022-12-11T11:40:09.815Z,5.40
2022-12-11T11:42:46.659Z,5.40
2022-12-11T11:45:22.265Z,5.10
2022-12-11T11:48:00.350Z,5.20
2022-12-11T11:50:35.271Z,5.40
2022-12-11T11:53:12.016Z,5.80
2022-12-11T11:55:48.758Z,5.50
2022-12-11T11:58:23.132Z,5.50
2022-12-11T12:00:55.258Z,5.40
2022-12-11T12:03:26.537Z,5.40
2022-12-11T12:06:00.086Z,5.50
2022-12-11T12:08:41.547Z,5.40
2022-12-11T12:11:19.213Z,5.60
2022-12-11T12:13:55.837Z,5.40
2022-12-11T12:19:42.816Z,5.50
2022-12-11T12:22:37.667Z,5.30
2022-12-11T12:25:19.988Z,5.30
2022-12-11T12:28:07.346Z,5.30
2022-12-11T12:30:50.711Z,5.30
2022-12-11T12:33:31.185Z,5.20
2022-12-11T12:36:08.853Z,5.10
2022-12-11T12:38:45.322Z,5.20
2022-12-11T12:41:20.993Z,5.20
2022-12-11T12:44:02.105Z,5.20
2022-12-11T12:46:41.509Z,5.30
2022-12-11T12:49:15.408Z,5.00
2022-12-11T12:51:45.325Z,5.10
2022-12-11T12:54:19.449Z,5.20
2022-12-11T12:56:51.248Z,5.10
2022-12-11T12:59:26.368Z,5.10
2022-12-11T13:01:58.779Z,5.10
2022-12-11T13:04:55.714Z,5.10
2022-12-11T13:07:31.770Z,5.20
2022-12-11T13:10:07.672Z,5.20
2022-12-11T13:12:46.547Z,5.10
2022-12-11T13:15:34.305Z,5.20
2022-12-11T13:18:06.677Z,5.20
2022-12-11T13:20:52.204Z,5.20
2022-12-11T13:23:29.684Z,5.20
2022-12-11T13:26:01.596Z,5.00
2022-12-11T13:28:53.982Z,5.20
2022-12-11T13:31:35.000Z,5.30
2022-12-11T13:34:20.423Z,5.30
2022-12-11T13:36:53.633Z,5.20
2022-12-11T13:39:28.219Z,5.40
2022-12-11T13:42:04.145Z,5.20
2022-12-11T13:44:41.903Z,5.30
2022-12-11T13:47:17.549Z,5.20
2022-12-11T13:49:50.607Z,5.10
2022-12-11T13:52:23.804Z,5.20
2022-12-11T13:54:56.701Z,5.30
2022-12-11T13:57:28.990Z,5.40
2022-12-11T14:00:01.521Z,5.30
2022-12-11T14:02:39.174Z,5.40
2022-12-11T14:05:13.112Z,5.30
2022-12-11T14:07:51.112Z,5.30
2022-12-11T14:10:25.460Z,5.50
2022-12-11T14:12:59.310Z,5.50
2022-12-11T14:15:34.747Z,5.60
2022-12-11T14:18:06.055Z,5.40
2022-12-11T14:20:39.436Z,5.50
2022-12-11T14:23:22.879Z,5.40
2022-12-11T14:25:59.936Z,5.30
2022-12-11T14:28:44.240Z,5.50
2022-12-11T14:31:25.975Z,5.40
2022-12-11T14:34:02.507Z,5.50
2022-12-11T14:36:39.425Z,5.60
2022-12-11T14:39:17.905Z,5.70
2022-12-11T14:41:59.753Z,5.60
2022-12-11T14:44:37.187Z,5.60
2022-12-11T14:47:17.020Z,5.60
2022-12-11T14:49:53.699Z,5.60
2022-12-11T14:52:30.590Z,5.50
2022-12-11T14:55:08.298Z,5.80
2022-12-11T14:57:44.780Z,5.70
2022-12-11T15:00:28.163Z,5.70
2022-12-11T15:03:05.891Z,5.70
2022-12-11T15:05:41.013Z,5.70
2022-12-11T15:08:25.912Z,5.80
2022-12-11T15:11:08.265Z,6.10
2022-12-11T15:13:41.362Z,5.80
2022-12-11T15:16:11.992Z,5.80
2022-12-11T15:18:44.786Z,5.80
2022-12-11T15:21:17.010Z,5.60
2022-12-11T15:23:53.459Z,5.80
2022-12-11T15:26:33.888Z,5.90
2022-12-11T15:29:06.170Z,5.70
2022-12-11T15:31:36.610Z,5.60
2022-12-11T15:34:25.118Z,5.50
2022-12-11T15:36:54.465Z,5.70
2022-12-11T15:39:23.426Z,5.70
2022-12-11T15:41:52.536Z,5.70
2022-12-11T15:44:24.083Z,5.60
2022-12-11T15:46:53.257Z,5.50
2022-12-11T15:49:24.423Z,5.50
2022-12-11T15:51:55.085Z,5.50
2022-12-11T15:54:24.120Z,5.70
2022-12-11T15:56:53.153Z,5.80
2022-12-11T15:59:22.357Z,5.80
2022-12-11T16:01:51.550Z,5.70
2022-12-11T16:04:20.824Z,5.70
2022-12-11T16:06:49.863Z,5.60
2022-12-11T16:09:20.529Z,5.60
2022-12-11T16:11:49.512Z,5.50
2022-12-11T16:14:18.839Z,5.60
2022-12-11T16:16:47.893Z,5.80
2022-12-11T16:19:17.211Z,5.80
2022-12-11T16:21:46.284Z,5.60
2022-12-11T16:24:16.229Z,6.00
2022-12-11T16:26:46.693Z,5.70
2022-12-11T16:29:15.789Z,5.50
2022-12-11T16:31:45.192Z,5.50
2022-12-11T16:34:14.306Z,5.50
2022-12-11T16:36:44.862Z,5.50
2022-12-11T16:39:14.235Z,5.40
2022-12-11T16:41:43.341Z,5.40
2022-12-11T16:44:14.014Z,5.50
2022-12-11T16:46:43.126Z,5.70
2022-12-11T16:49:12.202Z,5.60
2022-12-11T16:51:41.442Z,5.80
2022-12-11T16:54:10.678Z,5.80
2022-12-11T16:56:40.233Z,5.60
2022-12-11T16:59:09.526Z,5.80
2022-12-11T17:01:40.860Z,5.70
2022-12-11T17:04:10.074Z,5.70
2022-12-11T17:06:39.170Z,5.70
2022-12-11T17:09:08.353Z,5.90
2022-12-11T17:11:37.398Z,5.70
2022-12-11T17:14:06.427Z,5.70
2022-12-11T17:16:35.637Z,5.60
2022-12-11T17:19:07.542Z,5.70
2022-12-11T17:21:36.735Z,5.50
2022-12-11T17:24:06.057Z,5.70
2022-12-11T17:26:35.218Z,5.50
2022-12-11T17:29:04.542Z,5.60
2022-12-11T17:31:33.675Z,5.50
2022-12-11T17:34:02.966Z,5.50
2022-12-11T17:36:33.659Z,5.20
2022-12-11T17:39:02.753Z,4.90
2022-12-11T17:41:31.812Z,4.80
2022-12-11T17:44:01.008Z,4.90
2022-12-11T17:46:30.323Z,5.10
2022-12-11T17:49:00.396Z,5.00
2022-12-11T17:51:29.534Z,5.10
2022-12-11T17:54:00.104Z,4.90
2022-12-11T17:56:29.218Z,5.00
2022-12-11T17:58:59.561Z,4.90
2022-12-11T18:01:28.825Z,4.90
2022-12-11T18:04:00.330Z,4.70
2022-12-11T18:06:29.933Z,4.60
2022-12-11T18:09:00.592Z,4.80
2022-12-11T18:11:29.758Z,4.60
2022-12-11T18:13:58.949Z,4.70
2022-12-11T18:16:30.547Z,4.80
2022-12-11T18:30:48.635Z,4.80
2022-12-11T18:33:18.355Z,4.60
2022-12-11T18:35:51.338Z,4.50
2022-12-11T18:38:20.833Z,4.50
2022-12-11T18:40:49.936Z,4.60
2022-12-11T18:43:20.585Z,4.60
2022-12-11T18:45:49.859Z,4.70
2022-12-11T18:48:18.909Z,4.20
2022-12-11T18:50:48.658Z,4.50
2022-12-11T18:53:18.564Z,4.70
2022-12-11T18:55:49.501Z,4.50
2022-12-11T18:58:21.437Z,4.70
2022-12-11T19:00:50.645Z,4.60
2022-12-11T19:03:19.787Z,4.60
2022-12-11T19:05:48.783Z,4.60
2022-12-11T19:08:18.097Z,4.80
2022-12-11T19:10:48.393Z,4.60
2022-12-11T19:13:17.605Z,4.50
2022-12-11T19:15:52.616Z,4.40
2022-12-11T19:18:25.811Z,4.60
2022-12-11T19:21:06.464Z,4.40
2022-12-11T19:23:40.524Z,4.40
2022-12-11T19:26:15.324Z,4.20
2022-12-11T19:28:48.929Z,4.30
2022-12-11T19:31:28.433Z,4.10
2022-12-11T19:34:02.456Z,4.10
2022-12-11T19:36:38.149Z,4.10
2022-12-11T19:39:12.756Z,4.20
2022-12-11T19:41:48.022Z,4.10
2022-12-11T19:44:21.513Z,4.10
2022-12-11T19:46:55.591Z,4.30
2022-12-11T19:49:28.947Z,4.30
2022-12-11T19:52:02.974Z,4.30
2022-12-11T19:54:34.716Z,4.40
2022-12-11T19:57:04.447Z,4.40
2022-12-11T19:59:33.451Z,4.40
2022-12-11T20:02:04.192Z,4.10
2022-12-11T20:04:33.376Z,4.20
2022-12-11T20:07:02.311Z,4.40
2022-12-11T20:09:33.854Z,4.30
2022-12-11T20:12:03.713Z,4.30
2022-12-11T20:14:32.851Z,4.60
2022-12-11T20:17:14.477Z,4.40
2022-12-11T20:19:44.514Z,4.20
2022-12-11T20:22:13.734Z,4.70
2022-12-11T20:24:42.905Z,4.60
2022-12-11T20:27:12.651Z,4.70
2022-12-11T20:29:41.787Z,4.60
2022-12-11T20:32:12.686Z,4.60
2022-12-11T20:34:41.818Z,4.40
2022-12-11T20:37:10.993Z,4.30
2022-12-11T20:39:39.938Z,4.30
2022-12-11T20:42:11.219Z,4.30
2022-12-11T20:44:45.639Z,4.40
2022-12-11T20:47:21.081Z,4.40
2022-12-11T20:49:51.134Z,4.50
2022-12-11T20:52:21.008Z,4.30
2022-12-11T20:54:50.011Z,4.50
2022-12-11T20:57:19.124Z,4.60
2022-12-11T20:59:49.392Z,4.60
2022-12-11T21:02:20.180Z,4.70
2022-12-11T21:04:49.491Z,4.70
2022-12-11T21:07:18.737Z,4.60
2022-12-11T21:09:47.795Z,4.60
2022-12-11T21:12:16.818Z,4.70
2022-12-11T21:14:46.173Z,4.80
2022-12-11T21:17:15.276Z,4.90
2022-12-11T21:19:45.716Z,5.10
2022-12-11T21:22:14.872Z,5.20
2022-12-11T21:24:44.181Z,5.30
2022-12-11T21:27:13.147Z,5.50
2022-12-11T21:29:42.458Z,5.30
2022-12-11T21:32:11.499Z,5.50
2022-12-11T21:34:40.620Z,5.50
2022-12-11T21:37:11.189Z,5.60
2022-12-11T21:39:40.172Z,5.70
2022-12-11T21:42:09.428Z,5.40
2022-12-11T21:47:29.076Z,4.90
2022-12-11T21:49:58.134Z,4.90
2022-12-11T21:52:28.629Z,4.70
2022-12-11T21:54:58.146Z,4.60
2022-12-11T21:57:27.230Z,4.60
2022-12-11T21:59:56.214Z,4.50
2022-12-11T22:02:25.525Z,4.60
2022-12-11T22:04:54.776Z,4.40
2022-12-11T22:07:24.030Z,4.20
2022-12-11T22:09:54.547Z,4.20
2022-12-11T22:12:26.556Z,4.20
2022-12-11T22:14:55.735Z,4.10
2022-12-11T22:17:24.938Z,3.90
2022-12-11T22:19:55.413Z,4.00
2022-12-11T22:22:24.442Z,4.10
2022-12-11T22:24:55.018Z,4.10
2022-12-11T22:27:24.244Z,4.10
2022-12-11T22:29:56.282Z,4.40
2022-12-11T22:32:25.363Z,4.30
2022-12-11T22:34:54.373Z,4.20
2022-12-11T22:37:23.491Z,4.10
2022-12-11T22:39:53.939Z,4.10
2022-12-11T22:42:23.024Z,3.90
2022-12-11T22:44:52.100Z,3.90
2022-12-11T22:47:21.131Z,4.10
2022-12-11T22:49:51.547Z,4.20
2022-12-11T22:52:20.571Z,4.50
2022-12-11T22:54:49.655Z,4.40
2022-12-11T22:57:20.383Z,4.30
2022-12-11T22:59:49.508Z,4.40
2022-12-11T23:02:18.563Z,4.30
2022-12-11T23:04:48.314Z,4.20
2022-12-11T23:07:17.573Z,4.10
2022-12-11T23:09:46.590Z,4.00
2022-12-11T23:12:15.606Z,3.90
2022-12-11T23:14:46.313Z,3.80
2022-12-11T23:17:15.353Z,3.60
2022-12-11T23:19:46.181Z,3.60
2022-12-11T23:22:15.480Z,3.60
2022-12-11T23:24:44.684Z,3.60
2022-12-11T23:27:13.732Z,3.50
2022-12-11T23:29:43.512Z,3.60
2022-12-11T23:32:14.052Z,3.60
2022-12-11T23:34:43.133Z,3.60
2022-12-11T23:37:12.019Z,3.70
2022-12-11T23:39:41.065Z,3.60
2022-12-11T23:42:11.300Z,3.30
2022-12-11T23:44:40.308Z,3.60
2022-12-11T23:47:09.416Z,3.40
2022-12-11T23:49:39.929Z,3.40
2022-12-11T23:52:11.919Z,3.50
2022-12-11T23:54:41.181Z,3.60
2022-12-11T23:57:10.285Z,3.70
2022-12-11T23:59:39.393Z,4.20
